Time;durP1;ratioP1;P1;durP2;ratioP2;P2;SDS_P1;SDS_P2;PMS_P1;PMS_P2;Temp;Humidity;BMP_temperature;BMP_pressure;BME280_temperature;BME280_humidity;BME280_pressure;Samples;Min_cycle;Max_cycle;Signal;HPM_P1;HPM_P2
2022/08/03 00:01:23;;;;;;;6.13;4.20;;;13.30;99.90;;;14.09;100.00;99468.78;5063838;27;130528;-77
2022/08/03 00:03:51;;;;;;;7.55;4.40;;;13.20;99.90;;;14.08;100.00;99464.47;5067190;27;128823;-77
2022/08/03 00:06:20;;;;;;;7.88;4.32;;;13.30;99.90;;;14.13;100.00;99461.50;5082844;27;119648;-77
2022/08/03 00:08:50;;;;;;;6.28;4.32;;;13.40;99.90;;;14.15;100.00;99470.19;5082365;27;119374;-77
2022/08/03 00:11:19;;;;;;;6.93;4.13;;;13.40;99.90;;;14.17;100.00;99465.16;5066989;27;129551;-77
2022/08/03 00:13:47;;;;;;;7.18;4.10;;;13.40;99.90;;;14.15;100.00;99459.25;5063595;27;129720;-76
2022/08/03 00:16:16;;;;;;;5.97;4.40;;;13.30;99.90;;;14.09;100.00;99461.41;5049004;27;121688;-76
2022/08/03 00:18:45;;;;;;;6.20;4.40;;;13.20;99.90;;;14.06;100.00;99461.28;5082119;27;121797;-76
2022/08/03 00:21:13;;;;;;;6.20;4.18;;;13.20;99.90;;;14.01;100.00;99465.78;5081545;27;129976;-77
2022/08/03 00:23:42;;;;;;;5.93;4.43;;;13.20;99.90;;;13.98;100.00;99471.91;5081812;27;129611;-76
2022/08/03 00:26:12;;;;;;;6.53;3.75;;;13.10;99.90;;;13.94;100.00;99475.66;5067002;27;119282;-76
2022/08/03 00:28:41;;;;;;;6.43;4.40;;;13.20;99.90;;;13.93;100.00;99469.41;5082089;27;119491;-78
2022/08/03 00:31:09;;;;;;;5.20;3.88;;;13.20;99.90;;;13.92;100.00;99473.25;5049271;27;128960;-78
2022/08/03 00:33:38;;;;;;;5.50;3.90;;;13.10;99.90;;;13.93;100.00;99469.41;5065960;27;128638;-77
2022/08/03 00:36:07;;;;;;;6.50;4.22;;;13.00;99.90;;;13.91;100.00;99473.59;5081257;27;119539;-78
2022/08/03 00:38:35;;;;;;;9.18;4.70;;;13.00;99.90;;;13.84;100.00;99472.19;5066562;27;118121;-77
2022/08/03 00:41:04;;;;;;;7.00;4.82;;;13.00;99.90;;;13.73;100.00;99481.09;5060999;27;129852;-78
2022/08/03 00:43:34;;;;;;;5.82;4.32;;;12.90;99.90;;;13.63;100.00;99474.94;5081366;27;129332;-78
2022/08/03 00:46:03;;;;;;;7.68;4.68;;;12.80;99.90;;;13.53;100.00;99475.34;5064864;27;118525;-75
2022/08/03 00:48:32;;;;;;;7.57;4.28;;;12.70;99.90;;;13.50;100.00;99472.47;5081857;27;119364;-77
2022/08/03 00:51:02;;;;;;;7.05;4.43;;;12.70;99.90;;;13.48;100.00;99472.81;5048707;27;128719;-77
2022/08/03 00:53:31;;;;;;;6.72;4.50;;;12.70;99.90;;;13.48;100.00;99473.59;5049186;27;128543;-78
2022/08/03 00:56:00;;;;;;;6.60;4.20;;;12.70;99.90;;;13.47;100.00;99465.75;5048909;27;119161;-78
2022/08/03 00:58:28;;;;;;;6.40;4.63;;;12.70;99.90;;;13.45;100.00;99479.72;5082598;27;119639;-78
2022/08/03 01:00:58;;;;;;;6.72;4.50;;;12.70;1.00;;;13.44;100.00;99483.56;5065582;27;129518;-78
2022/08/03 01:03:27;;;;;;;6.50;4.95;;;12.70;99.90;;;13.43;100.00;99478.44;5081200;27;130097;-76
2022/08/03 01:06:08;;;;;;;6.88;4.75;;;12.70;99.90;;;13.40;100.00;99481.81;5079641;27;122877;-77
2022/08/03 01:08:44;;;;;;;9.57;4.63;;;12.60;99.90;;;13.35;100.00;99488.25;5066406;27;120622;-76
2022/08/03 01:11:19;;;;;;;7.05;4.78;;;12.60;1.00;;;13.29;100.00;99479.47;5048717;27;128744;-77
2022/08/03 01:13:57;;;;;;;11.60;4.88;;;12.60;1.00;;;13.19;100.00;99490.75;5065236;27;128843;-77
2022/08/03 01:16:37;;;;;;;7.20;4.82;;;12.50;1.00;;;13.02;100.00;99493.56;5080748;27;120220;-76
2022/08/03 01:19:29;;;;;;;6.90;4.63;;;12.40;1.00;;;12.88;100.00;99491.06;5081534;27;119549;-76
2022/08/03 01:22:11;;;;;;;6.00;4.53;;;12.30;1.00;;;12.81;100.00;99485.31;5080759;27;129872;-76
2022/08/03 01:24:56;;;;;;;7.88;4.90;;;12.30;1.00;;;12.81;100.00;99490.75;5081291;27;129645;-77
2022/08/03 01:27:34;;;;;;;6.70;4.90;;;12.30;1.00;;;12.86;100.00;99494.09;5081496;27;119567;-78
2022/08/03 01:30:07;;;;;;;6.65;4.82;;;12.30;1.00;;;12.92;100.00;99492.78;5066764;27;118374;-78
2022/08/03 01:32:43;;;;;;;8.07;4.47;;;12.30;1.00;;;12.95;100.00;99494.88;5059510;27;129581;-77
2022/08/03 01:35:14;;;;;;;6.80;4.28;;;12.20;1.00;;;12.99;100.00;99494.22;5064059;27;129016;-78
2022/08/03 01:37:53;;;;;;;6.30;4.38;;;12.20;1.00;;;13.00;100.00;99495.81;5080783;27;119350;-76
2022/08/03 01:40:22;;;;;;;7.45;4.72;;;12.20;1.00;;;13.00;100.00;99498.53;5066430;27;119414;-77
2022/08/03 01:42:52;;;;;;;7.28;5.15;;;12.20;1.00;;;13.00;100.00;99493.09;5080603;27;130596;-76
2022/08/03 01:45:24;;;;;;;6.95;5.00;;;12.20;1.00;;;12.95;100.00;99497.59;5080150;27;130007;-77
2022/08/03 01:47:54;;;;;;;8.68;5.57;;;12.30;1.00;;;12.88;100.00;99496.50;5081309;27;119252;-77
2022/08/03 01:50:27;;;;;;;9.45;5.60;;;12.20;1.00;;;12.86;100.00;99494.09;5081820;27;119550;-77
2022/08/03 01:52:58;;;;;;;7.18;5.50;;;12.20;1.00;;;12.83;100.00;99494.75;5065465;27;128691;-75
2022/08/03 01:55:30;;;;;;;9.98;5.70;;;12.20;1.00;;;12.78;100.00;99497.66;5084446;27;129944;-77
2022/08/03 01:58:02;;;;;;;9.50;5.47;;;12.20;1.00;;;12.77;100.00;99496.06;5086196;27;122031;-77
2022/08/03 02:00:33;;;;;;;8.93;5.35;;;12.20;1.00;;;12.79;100.00;99498.47;5081143;27;122537;-78
2022/08/03 02:03:04;;;;;;;8.88;4.60;;;12.20;1.00;;;12.78;100.00;99497.66;5080131;27;129275;-77
2022/08/03 02:05:34;;;;;;;9.90;5.38;;;12.20;1.00;;;12.81;100.00;99491.56;5064802;27;128665;-78
2022/08/03 02:08:05;;;;;;;7.20;4.47;;;12.20;1.00;;;12.87;100.00;99500.34;5066366;27;119156;-78
2022/08/03 02:10:35;;;;;;;8.45;5.55;;;12.10;1.00;;;12.84;100.00;99499.09;5083750;27;119134;-78
2022/08/03 02:13:07;;;;;;;7.18;5.20;;;12.20;1.00;;;12.80;100.00;99500.84;5080076;27;130323;-75
2022/08/03 02:15:39;;;;;;;7.25;5.53;;;12.20;1.00;;;12.81;100.00;99504.38;5079771;27;129340;-78
2022/08/03 02:18:09;;;;;;;8.63;6.03;;;12.20;1.00;;;12.81;100.00;99502.47;5081264;27;119825;-78
2022/08/03 02:20:39;;;;;;;10.00;6.03;;;12.30;1.00;;;12.79;100.00;99493.81;5081864;27;119611;-78
2022/08/03 02:23:08;;;;;;;8.85;5.45;;;12.30;1.00;;;12.78;100.00;99492.22;5061021;27;130014;-78
2022/08/03 02:25:44;;;;;;;8.70;5.55;;;12.30;1.00;;;12.80;100.00;99489.16;5066186;27;128674;-77
2022/08/03 02:28:17;;;;;;;7.47;5.55;;;12.30;1.00;;;12.79;100.00;99488.34;5082318;27;119767;-77
2022/08/03 02:30:54;;;;;;;7.15;5.32;;;12.20;1.00;;;12.83;100.00;99494.75;5087862;27;119408;-80
2022/08/03 02:33:28;;;;;;;9.32;6.10;;;12.20;1.00;;;12.85;100.00;99491.72;5083787;27;129814;-76
2022/08/03 02:36:00;;;;;;;6.70;5.20;;;12.20;1.00;;;12.85;100.00;99492.50;5051189;27;128853;-78
2022/08/03 02:38:36;;;;;;;8.43;4.72;;;12.20;1.00;;;12.89;100.00;99496.19;5068849;27;119203;-78
2022/08/03 02:41:08;;;;;;;9.70;5.90;;;12.20;1.00;;;12.95;100.00;99491.34;5069906;27;119691;-77
2022/08/03 02:43:37;;;;;;;7.97;5.28;;;12.20;1.00;;;13.01;100.00;99500.13;5070377;27;129114;-76
2022/08/03 02:46:10;;;;;;;8.57;5.75;;;12.20;1.00;;;13.07;100.00;99490.63;5082961;27;131040;-76
2022/08/03 02:48:41;;;;;;;8.00;5.65;;;12.30;1.00;;;13.10;100.00;99482.63;5079067;27;122529;-76
2022/08/03 02:51:11;;;;;;;9.88;5.88;;;12.30;1.00;;;13.12;100.00;99490.47;5080707;27;121717;-78
2022/08/03 02:53:41;;;;;;;9.10;6.28;;;12.40;1.00;;;13.19;100.00;99496.19;5079551;27;129846;-77
2022/08/03 02:56:11;;;;;;;8.50;5.20;;;12.50;1.00;;;13.22;100.00;99490.09;5057255;27;130323;-77
2022/08/03 02:58:42;;;;;;;8.27;5.10;;;12.50;1.00;;;13.28;100.00;99496.94;5059688;27;119551;-76
2022/08/03 03:01:13;;;;;;;9.10;4.95;;;12.50;1.00;;;13.34;100.00;99507.66;5059603;27;119526;-77
2022/08/03 03:03:42;;;;;;;10.85;5.57;;;12.80;1.00;;;13.43;100.00;99501.06;5061071;27;129580;-76
2022/08/03 03:06:12;;;;;;;7.55;5.13;;;12.80;1.00;;;13.54;100.00;99501.47;5059069;27;129576;-75
2022/08/03 03:08:41;;;;;;;7.15;4.95;;;12.90;1.00;;;13.62;100.00;99503.34;5061079;27;119555;-79
2022/08/03 03:11:11;;;;;;;6.60;4.57;;;12.90;1.00;;;13.76;100.00;99502.25;5063134;27;119729;-77
2022/08/03 03:13:41;;;;;;;7.25;4.10;;;13.00;1.00;;;13.94;100.00;99511.13;5061401;27;129789;-78
2022/08/03 03:16:14;;;;;;;7.32;4.32;;;13.10;1.00;;;14.27;100.00;99510.34;5062787;27;129527;-77
2022/08/03 03:18:45;;;;;;;7.55;4.10;;;13.30;1.00;;;14.60;100.00;99506.78;5055248;27;118915;-77
2022/08/03 03:21:17;;;;;;;6.13;3.97;;;13.50;1.00;;;14.88;100.00;99506.97;5049854;27;118521;-79
2022/08/03 03:23:46;;;;;;;7.18;3.17;;;13.70;1.00;;;15.37;100.00;99507.00;5045988;27;130646;-77
2022/08/03 03:26:15;;;;;;;6.25;3.13;;;14.10;1.00;;;15.72;100.00;99516.63;5047399;27;128437;-78
2022/08/03 03:28:45;;;;;;;6.20;3.25;;;14.70;1.00;;;15.91;100.00;99513.28;5063093;27;119648;-78
2022/08/03 03:31:15;;;;;;;4.75;3.22;;;14.70;99.90;;;15.98;100.00;99518.97;5062343;27;119546;-77
2022/08/03 03:33:43;;;;;;;7.22;3.92;;;14.70;99.90;;;16.03;100.00;99521.47;5040364;27;129982;-77
2022/08/03 03:36:12;;;;;;;8.38;3.90;;;14.50;99.90;;;16.02;100.00;99519.88;5041651;27;129366;-77
2022/08/03 03:38:41;;;;;;;6.95;3.60;;;14.40;99.90;;;15.95;100.00;99519.66;5041147;27;121710;-78
2022/08/03 03:41:10;;;;;;;5.72;3.45;;;14.30;99.90;;;15.93;100.00;99516.50;5041575;27;121972;-79
2022/08/03 03:43:39;;;;;;;6.22;4.13;;;14.30;99.90;;;15.89;100.00;99516.38;5041739;27;130088;-80
2022/08/03 03:46:09;;;;;;;6.78;4.43;;;14.30;99.90;;;15.77;100.00;99519.94;5032004;27;129471;-80
2022/08/03 03:48:40;;;;;;;5.35;3.55;;;14.20;99.90;;;15.89;100.00;99526.53;5042653;27;119700;-79
2022/08/03 03:51:09;;;;;;;6.47;3.95;;;14.30;99.90;;;15.99;100.00;99515.91;5042224;27;119603;-79
2022/08/03 03:53:39;;;;;;;4.85;3.35;;;14.50;99.90;;;15.98;100.00;99525.22;5041074;27;129901;-77
2022/08/03 03:56:07;;;;;;;4.82;3.45;;;14.40;99.90;;;15.99;100.00;99512.38;5041442;27;129361;-79
2022/08/03 03:58:36;;;;;;;6.00;3.50;;;14.40;99.90;;;16.12;100.00;99508.41;5042143;27;120382;-78
2022/08/03 04:01:04;;;;;;;12.70;4.28;;;14.60;99.90;;;16.14;100.00;99517.09;5042278;27;119189;-78
2022/08/03 04:03:33;;;;;;;5.78;3.58;;;14.60;99.90;;;16.21;100.00;99518.44;5039635;27;130459;-79
2022/08/03 04:11:47;;;;;;;7.20;3.83;;;14.60;99.90;;;16.26;100.00;99520.94;4994015;27;119007;-79
2022/08/03 04:14:22;;;;;;;5.80;3.88;;;14.70;99.90;;;16.28;100.00;99526.84;5025994;27;129506;-79
2022/08/03 04:16:57;;;;;;;5.78;3.75;;;14.70;99.90;;;16.36;100.00;99528.63;5041368;27;129635;-77
2022/08/03 04:19:30;;;;;;;5.53;3.80;;;14.70;99.90;;;16.44;100.00;99524.94;5042518;27;120140;-79
2022/08/03 04:22:05;;;;;;;7.07;4.05;;;14.80;99.90;;;16.56;100.00;99523.28;5041048;27;119210;-79
2022/08/03 04:24:41;;;;;;;6.55;3.97;;;14.90;99.90;;;16.64;100.00;99533.28;5022859;27;130021;-78
2022/08/03 04:27:14;;;;;;;5.47;3.47;;;15.00;99.90;;;16.68;100.00;99526.75;5044150;27;130348;-78
2022/08/03 04:29:47;;;;;;;5.50;3.80;;;15.20;99.90;;;16.78;100.00;99536.41;5032478;27;121324;-79
2022/08/03 04:32:19;;;;;;;8.45;4.38;;;15.20;99.90;;;16.89;100.00;99529.28;5061299;27;122111;-77
2022/08/03 04:34:47;;;;;;;5.10;3.58;;;15.30;99.90;;;17.00;100.00;99529.53;5061078;27;129966;-75
2022/08/03 04:37:26;;;;;;;5.25;3.75;;;15.40;99.90;;;16.95;100.00;99520.78;5045386;27;129427;-76
2022/08/03 04:39:58;;;;;;;9.93;4.13;;;15.60;99.90;;;17.07;100.00;99529.72;5061999;27;120779;-79
2022/08/03 04:42:27;;;;;;;6.55;3.40;;;15.80;99.90;;;17.25;100.00;99524.66;5062332;27;119329;-78
2022/08/03 04:44:57;;;;;;;6.30;3.30;;;16.00;99.90;;;17.49;100.00;99533.03;5046138;27;128945;-78
2022/08/03 04:47:26;;;;;;;5.72;3.30;;;16.00;99.90;;;17.67;100.00;99527.94;5060904;27;129595;-77
2022/08/03 04:49:55;;;;;;;5.38;2.95;;;16.20;99.90;;;17.41;100.00;99537.56;5061982;27;120507;-78
2022/08/03 04:52:25;;;;;;;5.05;3.30;;;16.10;99.90;;;17.59;100.00;99533.28;5043876;27;119509;-77
2022/08/03 04:54:54;;;;;;;8.80;3.83;;;16.40;99.90;;;17.75;100.00;99535.19;5072235;27;129802;-80
2022/08/03 04:57:22;;;;;;;5.40;3.55;;;16.40;99.90;;;17.91;99.43;99541.44;5082086;27;130452;-78
2022/08/03 04:59:53;;;;;;;7.72;3.67;;;16.50;99.90;;;18.01;98.33;99542.03;5069181;27;119656;-78
2022/08/03 05:02:21;;;;;;;5.65;3.35;;;16.60;99.90;;;18.12;98.89;99554.00;5063799;27;119184;-78
2022/08/03 05:04:50;;;;;;;7.38;3.25;;;16.80;99.90;;;18.31;98.08;99551.28;5050118;27;129444;-81
2022/08/03 05:07:19;;;;;;;5.05;3.63;;;17.00;99.90;;;18.37;96.50;99549.03;5081239;27;130050;-79
2022/08/03 05:09:49;;;;;;;10.10;3.85;;;17.10;99.90;;;18.63;95.61;99545.59;5063609;27;119683;-78
2022/08/03 05:12:17;;;;;;;5.75;3.13;;;17.30;99.90;;;18.77;95.33;99544.28;5068113;27;118856;-79
2022/08/03 05:14:46;;;;;;;5.85;3.25;;;17.40;99.90;;;18.85;93.85;99546.00;5082181;27;130466;-77
2022/08/03 05:17:15;;;;;;;4.72;3.10;;;17.50;99.90;;;18.96;93.01;99541.47;5065665;27;129037;-78
2022/08/03 05:19:43;;;;;;;6.50;2.97;;;17.60;99.90;;;19.12;91.34;99546.06;5081345;27;122371;-79
2022/08/03 05:22:12;;;;;;;5.60;3.00;;;17.70;99.90;;;19.29;89.89;99548.31;5082582;27;121852;-80
2022/08/03 05:24:41;;;;;;;6.60;3.25;;;17.80;99.90;;;19.25;88.81;99546.69;5067149;27;128881;-78
2022/08/03 05:27:17;;;;;;;5.07;2.67;;;17.90;99.90;;;19.18;89.60;99542.66;5080591;27;129564;-78
2022/08/03 05:29:47;;;;;;;4.32;2.53;;;18.10;99.90;;;19.27;88.92;99550.63;5081716;27;119244;-81
2022/08/03 05:32:16;;;;;;;6.95;2.42;;;18.20;99.90;;;19.60;87.81;99551.13;5081847;27;120129;-80
2022/08/03 05:34:45;;;;;;;5.43;2.65;;;18.30;99.90;;;19.87;86.63;99551.94;5063245;27;129854;-80
2022/08/03 05:37:13;;;;;;;4.60;2.20;;;18.40;99.90;;;19.72;85.26;99548.16;5060900;27;129069;-79
2022/08/03 05:39:42;;;;;;;4.72;1.90;;;18.50;99.90;;;19.70;82.70;99550.50;5046042;27;119403;-74
2022/08/03 05:42:15;;;;;;;5.03;1.85;;;18.70;99.90;;;19.78;82.16;99552.19;5047999;27;119103;-79
2022/08/03 05:44:44;;;;;;;3.55;1.90;;;18.80;99.90;;;19.77;82.46;99550.59;5059065;27;129012;-79
2022/08/03 05:47:13;;;;;;;4.07;1.88;;;18.90;99.90;;;19.88;81.42;99556.25;5078239;27;129334;-76
2022/08/03 05:49:41;;;;;;;5.45;2.10;;;18.90;99.90;;;19.98;81.06;99550.09;5080370;27;119719;-78
2022/08/03 05:52:10;;;;;;;5.43;1.88;;;19.00;99.90;;;19.92;81.71;99552.38;5080785;27;119549;-77
2022/08/03 05:54:38;;;;;;;2.60;1.55;;;19.20;99.90;;;20.06;81.78;99551.78;5061411;27;129759;-77
2022/08/03 05:57:07;;;;;;;2.85;1.67;;;19.20;99.90;;;20.33;81.00;99554.44;5060595;27;129560;-78
2022/08/03 05:59:39;;;;;;;3.25;1.50;;;19.50;99.90;;;20.63;78.43;99554.41;5060623;27;119567;-81
2022/08/03 06:02:07;;;;;;;3.33;1.48;;;19.80;99.90;;;20.64;76.65;99555.19;5062564;27;119026;-77
2022/08/03 06:04:36;;;;;;;2.70;1.30;;;19.80;99.90;;;20.68;76.29;99553.28;5062213;27;129967;-78
2022/08/03 06:07:05;;;;;;;4.20;1.50;;;19.80;99.90;;;20.69;76.47;99560.38;5059811;27;129520;-79
2022/08/03 06:09:34;;;;;;;3.03;1.10;;;19.80;99.90;;;20.67;76.24;99562.72;5061680;27;120931;-76
2022/08/03 06:12:03;;;;;;;3.38;1.50;;;20.00;99.90;;;20.80;76.33;99558.53;5059624;27;122663;-80
2022/08/03 06:14:32;;;;;;;2.55;1.75;;;20.00;99.90;;;20.74;76.89;99562.81;5060213;27;130328;-76
2022/08/03 06:17:01;;;;;;;3.35;1.48;;;20.00;99.90;;;21.10;74.49;99557.63;5058592;27;129962;-75
2022/08/03 06:19:30;;;;;;;3.75;1.30;;;20.40;99.90;;;21.10;74.61;99568.66;5061135;27;120291;-77
2022/08/03 06:21:59;;;;;;;2.80;1.60;;;20.30;99.90;;;21.40;74.94;99576.00;5060575;27;119211;-79
2022/08/03 06:24:28;;;;;;;5.55;1.95;;;20.60;99.90;;;21.63;72.08;99566.69;5062708;27;129980;-80
2022/08/03 06:26:56;;;;;;;3.60;1.50;;;20.70;98.30;;;21.69;71.25;99573.44;5062800;27;129243;-77
2022/08/03 06:29:24;;;;;;;1.42;1.20;;;20.80;94.30;;;21.69;72.34;99570.69;5060302;27;120055;-78
2022/08/03 06:31:53;;;;;;;3.95;1.40;;;21.00;96.50;;;21.80;69.92;99577.06;5074808;27;120042;-79
2022/08/03 06:34:24;;;;;;;3.03;1.30;;;20.90;88.20;;;21.50;70.31;99578.06;5058130;27;129764;-75
2022/08/03 06:36:53;;;;;;;4.32;1.67;;;20.70;92.70;;;21.36;71.20;99580.69;5058242;27;130059;-79
2022/08/03 06:39:22;;;;;;;2.45;1.30;;;20.60;94.20;;;21.57;70.17;99569.03;5060017;27;119429;-77
2022/08/03 06:41:51;;;;;;;2.35;1.40;;;20.70;90.20;;;21.76;71.12;99570.72;5062601;27;118408;-79
2022/08/03 06:44:20;;;;;;;3.63;1.67;;;21.00;86.80;;;21.97;68.31;99572.03;5063994;27;128797;-75
2022/08/03 06:46:48;;;;;;;1.65;1.40;;;21.20;70.70;;;21.97;68.52;99569.25;5063168;27;130164;-78
2022/08/03 06:49:17;;;;;;;2.90;1.75;;;21.10;73.20;;;22.31;67.77;99572.59;5067485;27;119284;-79
2022/08/03 06:51:49;;;;;;;3.30;1.48;;;21.40;72.20;;;22.40;66.98;99569.47;5048943;27;119237;-79
2022/08/03 06:54:18;;;;;;;2.28;1.60;;;21.40;69.20;;;22.23;66.84;99571.75;5048144;27;129199;-75
2022/08/03 06:56:47;;;;;;;3.33;1.52;;;21.30;58.00;;;22.30;67.67;99576.56;5066139;27;130403;-74
2022/08/03 06:59:15;;;;;;;2.67;1.40;;;21.50;66.00;;;22.71;66.46;99579.03;5064099;27;121870;-75
2022/08/03 07:01:44;;;;;;;2.30;1.20;;;21.70;59.50;;;23.19;64.92;99577.94;5063924;27;121552;-80
2022/08/03 07:04:12;;;;;;;1.70;1.10;;;22.00;55.70;;;23.78;62.72;99576.66;5047927;27;129420;-80
2022/08/03 07:06:41;;;;;;;1.80;1.20;;;22.40;43.60;;;24.25;61.83;99574.59;5062867;27;130275;-79
2022/08/03 07:09:11;;;;;;;2.45;1.30;;;22.60;39.60;;;23.99;60.39;99579.41;5065036;27;120045;-78
2022/08/03 07:11:40;;;;;;;2.05;1.35;;;22.20;39.20;;;23.94;60.69;99579.06;5060092;27;119616;-76
2022/08/03 07:14:09;;;;;;;2.63;1.75;;;22.40;39.40;;;24.28;59.45;99575.75;5061788;27;128859;-79
2022/08/03 07:16:38;;;;;;;3.30;1.60;;;22.70;24.20;;;24.02;59.93;99575.84;5068185;27;128987;-79
2022/08/03 07:19:06;;;;;;;1.85;1.25;;;22.30;29.00;;;24.30;60.01;99579.69;5066692;27;119381;-78
2022/08/03 07:21:35;;;;;;;3.05;1.30;;;22.60;27.60;;;24.24;58.48;99586.84;5065982;27;118121;-78
2022/08/03 07:24:04;;;;;;;2.95;1.50;;;22.50;20.30;;;23.50;61.03;99589.41;5065113;27;129748;-76
2022/08/03 07:26:34;;;;;;;3.03;1.50;;;22.00;29.00;;;23.31;60.57;99590.56;5061587;27;129352;-75
2022/08/03 07:29:03;;;;;;;2.25;1.40;;;21.90;23.90;;;23.39;60.08;99591.38;5062801;27;120009;-78
2022/08/03 07:31:31;;;;;;;1.77;1.10;;;21.90;16.70;;;23.04;60.00;99598.47;5061699;27;119467;-78
2022/08/03 07:34:00;;;;;;;3.13;1.30;;;21.90;15.50;;;23.52;59.90;99592.56;5062927;27;130130;-80
2022/08/03 07:36:28;;;;;;;1.67;1.10;;;22.10;18.10;;;23.23;58.50;99587.03;5048285;27;130136;-76
2022/08/03 07:38:57;;;;;;;2.78;1.30;;;21.90;9.10;;;23.26;58.43;99594.53;5042519;27;120026;-76
2022/08/03 07:41:25;;;;;;;2.80;1.15;;;22.00;6.60;;;23.69;57.13;99586.19;5043548;27;119216;-76
2022/08/03 07:43:56;;;;;;;7.45;1.23;;;22.20;2.40;;;23.67;57.96;99583.03;5061569;27;129980;-80
2022/08/03 07:46:24;;;;;;;1.70;1.40;;;22.40;1.00;;;23.55;58.56;99597.31;5060427;27;129539;-79
2022/08/03 07:48:53;;;;;;;5.55;1.60;;;22.30;4.20;;;23.28;58.71;99585.84;5056201;27;121625;-81
2022/08/03 07:51:22;;;;;;;2.95;1.30;;;21.90;7.00;;;23.41;58.75;99586.25;5064357;27;120454;-81
2022/08/03 07:53:50;;;;;;;1.50;1.13;;;22.10;1.10;;;23.12;57.71;99586.22;5055124;27;130506;-79
2022/08/03 07:56:20;;;;;;;2.63;1.10;;;22.00;1.00;;;23.28;59.81;99583.88;5078540;27;129673;-78
2022/08/03 07:58:48;;;;;;;2.50;1.30;;;22.10;9.00;;;23.57;59.40;99586.59;5080308;27;119480;-82
2022/08/03 08:01:19;;;;;;;2.42;1.02;;;22.30;4.50;;;23.90;56.35;99584.59;5083396;27;119311;-78
2022/08/03 08:03:48;;;;;;;4.05;1.25;;;22.50;1.00;;;24.06;57.06;99584.16;5082496;27;130083;-83
2022/08/03 08:06:18;;;;;;;2.28;1.30;;;22.60;1.00;;;23.84;54.72;99584.22;5079102;27;129413;-77
2022/08/03 08:08:46;;;;;;;2.05;1.27;;;22.70;1.00;;;24.21;54.58;99577.38;5066704;27;118819;-81
2022/08/03 08:11:15;;;;;;;1.88;1.20;;;22.90;1.00;;;24.88;54.96;99576.63;5083094;27;119588;-78
2022/08/03 08:13:43;;;;;;;1.85;1.23;;;23.40;1.00;;;24.92;53.11;99582.97;5080348;27;130623;-75
2022/08/03 08:16:12;;;;;;;2.60;1.30;;;23.40;1.00;;;24.85;54.43;99577.44;5081584;27;129610;-78
2022/08/03 08:18:42;;;;;;;2.38;1.20;;;23.20;1.00;;;24.33;55.69;99584.44;5066357;27;119505;-76
2022/08/03 08:21:10;;;;;;;2.80;1.50;;;22.90;1.00;;;24.11;55.68;99588.50;5082258;27;120041;-77
2022/08/03 08:23:39;;;;;;;3.13;1.38;;;22.60;1.00;;;24.23;55.12;99579.72;5082345;27;130428;-75
2022/08/03 08:26:07;;;;;;;1.95;1.30;;;22.70;1.00;;;24.10;54.16;99584.16;5081372;27;129468;-77
2022/08/03 08:28:36;;;;;;;1.90;1.20;;;22.80;1.00;;;24.08;53.47;99589.31;5082963;27;119806;-77
2022/08/03 08:31:05;;;;;;;2.72;1.60;;;23.00;1.00;;;24.04;55.15;99590.09;5078655;27;119799;-74
2022/08/03 08:33:34;;;;;;;2.10;1.27;;;23.00;1.00;;;23.79;55.59;99592.13;5061108;27;129894;-75
2022/08/03 08:36:05;;;;;;;2.13;1.10;;;22.70;1.00;;;23.66;54.23;99591.75;5062048;27;129527;-79
2022/08/03 08:38:35;;;;;;;3.75;1.30;;;22.50;1.00;;;23.85;54.19;99590.56;5045691;27;121606;-81
2022/08/03 08:41:04;;;;;;;2.38;1.40;;;22.80;1.00;;;23.91;54.31;99586.19;5047187;27;120944;-77
2022/08/03 08:43:33;;;;;;;2.97;1.60;;;22.80;1.00;;;23.79;54.46;99589.34;5060517;27;130428;-78
2022/08/03 08:46:03;;;;;;;1.85;1.27;;;22.70;1.00;;;23.66;56.79;99587.00;5061534;27;130552;-76
2022/08/03 08:48:32;;;;;;;2.00;1.27;;;22.70;1.00;;;24.17;55.19;99589.69;5044600;27;119756;-74
2022/08/03 08:51:02;;;;;;;3.38;1.40;;;23.20;1.00;;;24.60;54.15;99586.72;5044427;27;119379;-76
2022/08/03 08:53:36;;;;;;;2.95;1.35;;;23.30;1.00;;;24.52;54.37;99597.03;5047074;27;128848;-75
2022/08/03 08:56:05;;;;;;;2.95;1.30;;;23.30;1.00;;;24.43;53.97;99598.66;5065359;27;129377;-78
2022/08/03 08:58:37;;;;;;;2.95;1.42;;;23.30;1.00;;;24.18;53.81;99589.28;5044047;27;119734;-81
2022/08/03 09:01:06;;;;;;;1.63;1.23;;;23.00;1.00;;;24.32;54.54;99587.63;5062311;27;119433;-75
2022/08/03 09:03:35;;;;;;;2.83;1.50;;;22.90;1.00;;;23.99;53.45;99587.72;5060748;27;130199;-75
2022/08/03 09:06:04;;;;;;;2.42;1.30;;;22.80;1.00;;;24.28;51.52;99600.69;5060827;27;130017;-77
2022/08/03 09:08:34;;;;;;;1.95;1.40;;;23.30;1.00;;;24.32;51.70;99588.41;5062255;27;119533;-77
2022/08/03 09:11:03;;;;;;;2.88;1.52;;;23.30;1.00;;;24.32;53.62;99593.94;5079641;27;119416;-77
2022/08/03 09:13:33;;;;;;;3.03;1.40;;;23.40;1.00;;;24.30;51.23;99604.66;5082125;27;130986;-75
2022/08/03 09:16:16;;;;;;;1.88;1.30;;;23.30;1.00;;;24.26;48.07;99605.88;5049978;27;128538;-75
2022/08/03 09:18:48;;;;;;;3.95;1.33;;;23.20;1.00;;;24.43;51.05;99602.22;5050348;27;118559;-77
2022/08/03 09:21:20;;;;;;;2.33;1.30;;;23.50;1.00;;;24.51;51.16;99600.19;5067399;27;118484;-81
2022/08/03 09:23:52;;;;;;;3.58;1.50;;;23.50;1.00;;;25.10;51.20;99603.06;5082244;27;130022;-79
2022/08/03 09:26:23;;;;;;;2.70;1.30;;;24.00;1.00;;;25.42;48.53;99602.03;5082155;27;130591;-73
2022/08/03 09:28:57;;;;;;;4.43;1.17;;;24.20;1.00;;;25.47;47.65;99600.78;5048950;27;121564;-76
2022/08/03 09:31:34;;;;;;;2.50;1.40;;;24.10;1.00;;;25.74;50.00;99600.13;5082045;27;123223;-79
2022/08/03 09:34:05;;;;;;;2.10;1.42;;;24.20;1.00;;;25.46;51.87;99594.47;5081039;27;129838;-72
2022/08/03 09:36:41;;;;;;;2.30;1.45;;;24.10;1.00;;;25.41;50.87;99594.88;5081906;27;129413;-78
2022/08/03 09:39:14;;;;;;;1.80;1.20;;;23.80;1.00;;;24.79;52.32;99601.28;5082048;27;119736;-75
2022/08/03 09:41:45;;;;;;;1.88;1.40;;;23.40;1.00;;;24.98;52.35;99595.22;5082535;27;119128;-77
2022/08/03 09:44:14;;;;;;;3.53;1.20;;;23.60;1.00;;;25.15;52.14;99603.81;5082196;27;130454;-77
2022/08/03 09:46:50;;;;;;;2.58;1.30;;;23.90;1.00;;;24.21;53.21;99604.28;5081995;27;129502;-74
2022/08/03 09:49:19;;;;;;;2.08;1.30;;;23.10;1.00;;;24.17;52.62;99603.53;5082347;27;119455;-78
2022/08/03 09:51:49;;;;;;;5.20;1.40;;;23.20;1.00;;;24.86;51.36;99604.00;5066416;27;118653;-78
2022/08/03 09:54:29;;;;;;;3.15;1.40;;;23.80;1.00;;;25.21;50.99;99591.06;5065786;27;129411;-77
2022/08/03 09:56:58;;;;;;;3.50;1.52;;;23.90;1.00;;;25.44;49.08;99599.63;5063735;27;129731;-79
2022/08/03 09:59:30;;;;;;;1.92;1.20;;;24.10;1.00;;;26.14;48.73;99592.97;5081963;27;120009;-76
2022/08/03 10:02:00;;;;;;;2.65;1.20;;;24.50;1.00;;;26.30;48.31;99597.16;5063601;27;119827;-78
2022/08/03 10:04:29;;;;;;;1.85;1.30;;;24.70;1.00;;;26.21;46.80;99594.09;5066534;27;129421;-77
2022/08/03 10:07:08;;;;;;;3.08;1.50;;;24.70;1.00;;;26.10;46.44;99592.25;5081593;27;130085;-80
2022/08/03 10:09:38;;;;;;;1.65;1.20;;;24.50;1.00;;;25.62;46.58;99593.91;5049099;27;119832;-78
2022/08/03 10:12:09;;;;;;;2.53;1.50;;;24.10;1.00;;;24.81;48.43;99596.09;5066607;27;118048;-79
2022/08/03 10:14:44;;;;;;;1.67;1.20;;;23.70;1.00;;;25.26;46.93;99588.66;5066608;27;129376;-77
2022/08/03 10:17:13;;;;;;;2.28;1.52;;;24.10;1.00;;;25.82;47.90;99584.97;5075196;27;130014;-76
2022/08/03 10:19:42;;;;;;;1.88;1.35;;;24.50;1.00;;;26.27;47.48;99586.88;5042033;27;121622;-72
2022/08/03 10:22:14;;;;;;;3.33;1.33;;;24.90;1.00;;;26.09;47.42;99593.44;5065519;27;121368;-77
2022/08/03 10:24:53;;;;;;;2.75;1.25;;;24.80;1.00;;;26.24;46.43;99590.47;5065925;27;129314;-76
2022/08/03 10:27:25;;;;;;;2.40;1.40;;;24.80;1.00;;;26.26;45.67;99590.88;5073833;27;129997;-76
2022/08/03 10:30:01;;;;;;;2.83;1.55;;;24.80;1.00;;;26.17;45.69;99583.78;5061251;27;119376;-76
2022/08/03 10:32:34;;;;;;;2.00;1.20;;;24.70;1.00;;;26.18;42.88;99590.94;5061739;27;119215;-76